Time;durP1;ratioP1;P1;durP2;ratioP2;P2;SDS_P1;SDS_P2;PMS_P1;PMS_P2;Temp;Humidity;BMP_temperature;BMP_pressure;BME280_temperature;BME280_humidity;BME280_pressure;Samples;Min_cycle;Max_cycle;Signal;HPM_P1;HPM_P2
2022/01/01 00:02:12;;;;;;;25.23;13.10;;;;;;;11.02;100.00;101990.06;5011509;28;20434;-71
2022/01/01 00:04:37;;;;;;;21.77;11.83;;;;;;;11.20;100.00;102004.09;5019978;28;20473;-71
2022/01/01 00:07:03;;;;;;;23.97;11.17;;;;;;;11.15;100.00;101992.19;5028429;28;20220;-70
2022/01/01 00:09:28;;;;;;;23.67;12.70;;;;;;;11.24;100.00;102026.91;5027403;28;20696;-71
2022/01/01 00:11:54;;;;;;;27.97;12.77;;;;;;;10.42;100.00;101907.41;5016321;28;20276;-71
2022/01/01 00:14:19;;;;;;;26.17;11.57;;;;;;;11.16;100.00;102012.66;5022020;28;20210;-71
2022/01/01 00:16:44;;;;;;;20.73;10.70;;;;;;;11.05;100.00;102011.19;5015264;28;20211;-71
2022/01/01 00:19:10;;;;;;;21.67;13.63;;;;;;;10.35;100.00;101916.13;5026783;28;20184;-71
2022/01/01 00:21:35;;;;;;;26.17;14.40;;;;;;;10.95;100.00;101992.59;5022244;28;20230;-71
2022/01/01 00:24:01;;;;;;;29.57;16.93;;;;;;;10.66;100.00;101939.53;5016991;28;20617;-71
2022/01/01 00:26:26;;;;;;;34.60;22.37;;;;;;;11.06;100.00;102012.88;5028021;28;20188;-72
2022/01/01 00:28:51;;;;;;;40.73;24.67;;;;;;;10.81;100.00;101979.91;5028712;28;20235;-71
2022/01/01 00:31:17;;;;;;;50.20;26.60;;;;;;;11.09;100.00;102020.59;5031081;28;20187;-71
2022/01/01 00:33:42;;;;;;;35.87;21.90;;;;;;;11.03;100.00;102019.44;5031336;28;20231;-71
2022/01/01 00:36:08;;;;;;;35.80;19.60;;;;;;;11.09;100.00;102018.72;5027127;28;20207;-72
2022/01/01 00:38:33;;;;;;;34.47;20.13;;;;;;;10.97;100.00;102016.59;5029723;28;20172;-72
2022/01/01 00:40:59;;;;;;;31.30;18.83;;;;;;;11.02;100.00;102015.09;5031165;28;20665;-69
2022/01/01 00:43:25;;;;;;;36.87;21.50;;;;;;;10.96;100.00;101994.28;5035297;28;20393;-69
2022/01/01 00:45:50;;;;;;;45.57;22.40;;;;;;;11.09;100.00;102015.22;5032695;28;20656;-69
2022/01/01 00:48:16;;;;;;;38.37;23.60;;;;;;;11.14;100.00;102023.59;5031868;28;20856;-68
2022/01/01 00:50:41;;;;;;;42.03;24.70;;;;;;;10.87;100.00;101998.00;5032589;28;22331;-69
2022/01/01 00:53:07;;;;;;;39.60;24.07;;;;;;;11.03;100.00;102011.38;5036136;28;20188;-70
2022/01/01 00:55:33;;;;;;;48.80;25.57;;;;;;;11.06;100.00;102034.34;5036001;28;20211;-70
2022/01/01 00:57:59;;;;;;;36.97;22.83;;;;;;;11.09;100.00;102037.53;5027408;28;20176;-69
2022/01/01 01:00:24;;;;;;;50.93;28.53;;;;;;;11.12;100.00;102047.09;5033771;28;21068;-70
2022/01/01 01:02:50;;;;;;;42.43;25.13;;;;;;;10.72;100.00;101987.13;5034228;28;20571;-70
2022/01/01 01:05:15;;;;;;;46.77;30.17;;;;;;;10.77;100.00;102000.88;5031920;28;20223;-70
2022/01/01 01:07:40;;;;;;;38.93;23.93;;;;;;;10.82;100.00;102005.75;5036394;28;20286;-70
2022/01/01 01:10:06;;;;;;;42.83;26.03;;;;;;;11.00;100.00;102062.72;5032080;28;20190;-70
2022/01/01 01:12:42;;;;;;;35.00;22.43;;;;;;;10.79;100.00;102027.53;5028898;28;20657;-70
2022/01/01 01:15:17;;;;;;;40.70;22.00;;;;;;;11.00;100.00;102076.16;5031051;28;20216;-70
2022/01/01 01:17:47;;;;;;;41.13;22.63;;;;;;;10.78;100.00;102050.84;5031485;28;21007;-70
2022/01/01 01:20:13;;;;;;;37.43;22.00;;;;;;;10.93;100.00;102077.00;5032047;28;20521;-70
2022/01/01 01:22:38;;;;;;;40.53;23.60;;;;;;;10.29;100.00;101974.97;5031894;28;20438;-70
2022/01/01 01:25:04;;;;;;;37.73;22.80;;;;;;;10.77;100.00;102054.56;5028243;28;20523;-70
2022/01/01 01:27:30;;;;;;;42.20;21.83;;;;;;;10.55;100.00;102002.44;5028454;28;20195;-70
2022/01/01 01:29:58;;;;;;;40.77;21.80;;;;;;;10.83;100.00;102053.03;5029990;28;20570;-70
2022/01/01 01:32:24;;;;;;;34.50;21.30;;;;;;;10.83;100.00;102072.66;5031598;28;20429;-69
2022/01/01 01:34:49;;;;;;;31.93;21.23;;;;;;;10.84;100.00;102044.81;5030323;28;20966;-70
2022/01/01 01:37:14;;;;;;;42.23;22.33;;;;;;;10.94;100.00;102060.75;5032455;28;20673;-72
2022/01/01 01:39:40;;;;;;;38.47;19.50;;;;;;;10.78;100.00;102029.38;5031849;28;20274;-70
2022/01/01 01:42:05;;;;;;;32.77;18.07;;;;;;;10.43;100.00;101997.59;5031767;28;20296;-70
2022/01/01 01:44:41;;;;;;;32.93;19.77;;;;;;;10.38;100.00;101980.16;5032387;28;20215;-70
2022/01/01 01:47:14;;;;;;;36.57;18.40;;;;;;;10.44;100.00;101981.31;5030732;28;20176;-70
2022/01/01 01:49:41;;;;;;;43.90;18.00;;;;;;;10.62;100.00;102018.69;5029177;28;20556;-70
2022/01/01 01:52:07;;;;;;;32.33;17.90;;;;;;;10.83;100.00;102048.50;5040518;28;20939;-69
2022/01/01 01:54:33;;;;;;;28.87;15.60;;;;;;;10.83;100.00;102071.81;5028653;28;20473;-70
2022/01/01 01:56:59;;;;;;;31.77;17.43;;;;;;;10.68;100.00;102041.34;5030888;28;20443;-70
2022/01/01 01:59:25;;;;;;;32.73;16.80;;;;;;;10.60;100.00;102045.69;5030205;28;20195;-70
2022/01/01 02:01:52;;;;;;;36.80;16.17;;;;;;;10.81;100.00;102076.53;5030102;28;20199;-70
2022/01/01 02:04:17;;;;;;;25.63;15.47;;;;;;;10.74;100.00;102072.84;5029430;28;20474;-70
2022/01/01 02:06:43;;;;;;;30.07;14.50;;;;;;;10.62;100.00;102035.63;5031946;28;20483;-70
2022/01/01 02:09:11;;;;;;;31.13;15.43;;;;;;;10.03;100.00;101967.06;5031888;28;20200;-70
2022/01/01 02:11:37;;;;;;;36.03;16.13;;;;;;;10.45;100.00;102031.28;5027714;28;20447;-72
2022/01/01 02:14:09;;;;;;;32.50;15.27;;;;;;;9.93;100.00;101956.53;5031165;28;20467;-72
2022/01/01 02:16:50;;;;;;;27.13;14.27;;;;;;;10.25;100.00;102016.53;5031415;28;20517;-72
2022/01/01 02:19:20;;;;;;;34.70;15.17;;;;;;;10.33;100.00;102020.06;5027609;28;20497;-72
2022/01/01 02:21:46;;;;;;;33.83;15.23;;;;;;;10.53;100.00;102067.97;5030579;28;20936;-72
2022/01/01 02:24:12;;;;;;;31.17;16.00;;;;;;;10.43;100.00;102046.72;5031014;28;20581;-72
2022/01/01 02:26:37;;;;;;;35.17;15.80;;;;;;;9.81;100.00;101969.44;5029457;28;20196;-72
2022/01/01 02:29:03;;;;;;;37.13;14.77;;;;;;;9.93;100.00;101980.66;5028387;28;21100;-72
2022/01/01 02:31:31;;;;;;;30.13;16.27;;;;;;;10.21;100.00;102047.34;5029669;28;20214;-72
2022/01/01 02:34:03;;;;;;;32.43;15.80;;;;;;;10.14;100.00;102037.28;5030921;28;20543;-72
2022/01/01 02:36:40;;;;;;;33.60;16.73;;;;;;;10.06;100.00;102017.66;5027657;28;20536;-72
2022/01/01 02:39:11;;;;;;;29.93;16.80;;;;;;;10.16;100.00;102078.19;5027148;28;20441;-72
2022/01/01 02:41:36;;;;;;;30.40;15.83;;;;;;;10.32;100.00;102106.03;5030081;28;20446;-73
2022/01/01 02:44:02;;;;;;;39.80;18.20;;;;;;;10.14;100.00;102115.03;5028181;28;20470;-72
2022/01/01 02:46:27;;;;;;;34.03;16.10;;;;;;;10.19;100.00;102093.09;5029669;28;20180;-72
2022/01/01 02:48:52;;;;;;;36.10;17.20;;;;;;;8.98;100.00;101922.03;5027511;28;20288;-72
2022/01/01 02:51:18;;;;;;;36.70;16.37;;;;;;;9.99;100.00;102055.03;5023585;28;20656;-72
2022/01/01 02:53:44;;;;;;;35.47;16.30;;;;;;;9.43;100.00;101968.16;5029117;28;20298;-72
2022/01/01 02:56:09;;;;;;;34.90;15.07;;;;;;;10.20;100.00;102116.22;5031086;28;20646;-72
2022/01/01 02:58:34;;;;;;;34.47;15.47;;;;;;;9.80;100.00;102066.88;5028617;28;20207;-73
2022/01/01 03:01:00;;;;;;;37.47;14.20;;;;;;;10.03;100.00;102142.16;5027526;28;20200;-72
2022/01/01 03:03:25;;;;;;;32.50;14.50;;;;;;;9.36;100.00;102010.00;5031420;28;20283;-72
2022/01/01 03:05:50;;;;;;;29.63;13.23;;;;;;;9.31;100.00;102004.28;5028857;28;20198;-72
2022/01/01 03:08:16;;;;;;;33.33;14.83;;;;;;;9.73;100.00;102055.97;5029266;28;20200;-72
2022/01/01 03:10:41;;;;;;;34.77;16.30;;;;;;;10.15;100.00;102119.41;5031178;28;20226;-72
2022/01/01 03:13:06;;;;;;;29.70;13.90;;;;;;;10.01;100.00;102078.97;5028041;28;20574;-72
2022/01/01 03:15:32;;;;;;;35.80;14.00;;;;;;;9.89;100.00;102078.44;5026046;28;20213;-73
2022/01/01 03:17:57;;;;;;;35.50;16.50;;;;;;;9.57;100.00;102009.56;5032258;28;20271;-72
2022/01/01 03:20:22;;;;;;;30.27;15.07;;;;;;;9.72;100.00;102056.16;5029983;28;20551;-72
2022/01/01 03:22:48;;;;;;;36.23;17.50;;;;;;;9.46;100.00;102008.03;5029685;28;20669;-73
2022/01/01 03:25:13;;;;;;;33.27;15.97;;;;;;;10.44;100.00;102136.88;5027890;28;20227;-72
2022/01/01 03:27:39;;;;;;;35.30;16.40;;;;;;;8.28;100.00;101833.94;5024906;28;20287;-73
2022/01/01 03:30:04;;;;;;;42.03;17.50;;;;;;;9.95;100.00;102075.97;5028244;28;20208;-72
2022/01/01 03:32:30;;;;;;;46.27;19.80;;;;;;;9.73;100.00;102037.22;5029367;28;20188;-73
2022/01/01 03:34:58;;;;;;;37.97;19.63;;;;;;;9.61;100.00;102017.09;5031430;28;20462;-72
2022/01/01 03:37:24;;;;;;;48.47;20.90;;;;;;;9.97;100.00;102057.03;5028910;28;20262;-72
2022/01/01 03:39:49;;;;;;;43.67;19.60;;;;;;;9.82;100.00;102032.72;5025774;28;20446;-72
2022/01/01 03:42:14;;;;;;;40.97;20.40;;;;;;;9.99;100.00;102065.75;5024670;28;20261;-72
2022/01/01 03:44:40;;;;;;;37.67;22.00;;;;;;;9.67;100.00;102040.56;5029462;28;20239;-73
2022/01/01 03:47:09;;;;;;;50.40;23.23;;;;;;;9.06;100.00;101921.22;5029090;28;20263;-72
2022/01/01 03:49:36;;;;;;;42.90;22.90;;;;;;;10.27;100.00;102119.97;5026521;28;20657;-72
2022/01/01 03:52:03;;;;;;;51.20;26.20;;;;;;;10.30;100.00;102119.63;5028116;28;20542;-72
2022/01/01 03:54:28;;;;;;;54.17;26.77;;;;;;;8.69;100.00;101876.94;5026613;28;20463;-72
2022/01/01 03:56:53;;;;;;;50.13;24.37;;;;;;;9.83;100.00;102034.38;5023150;28;20445;-72
2022/01/01 03:59:20;;;;;;;47.63;25.23;;;;;;;9.88;100.00;102055.34;5026636;28;20701;-72
2022/01/01 04:01:46;;;;;;;65.90;28.83;;;;;;;10.49;100.00;102152.50;5023615;28;20191;-72
2022/01/01 04:04:11;;;;;;;48.17;26.43;;;;;;;10.42;100.00;102136.25;5030852;28;20819;-72
2022/01/01 04:06:37;;;;;;;62.23;28.77;;;;;;;9.56;100.00;101995.31;5028714;28;20450;-73
2022/01/01 04:09:02;;;;;;;60.63;28.70;;;;;;;10.39;100.00;102099.03;5028941;28;20209;-73
2022/01/01 04:11:27;;;;;;;56.63;26.47;;;;;;;10.56;100.00;102122.16;5025716;28;20267;-72
2022/01/01 04:13:53;;;;;;;52.83;26.80;;;;;;;9.28;100.00;101950.06;5026441;28;20235;-74
2022/01/01 04:16:19;;;;;;;54.30;24.23;;;;;;;9.84;100.00;102013.81;5023267;28;20578;-72
2022/01/01 04:18:45;;;;;;;56.13;26.07;;;;;;;9.68;100.00;102015.44;5030983;28;20318;-73
2022/01/01 04:21:11;;;;;;;52.37;25.07;;;;;;;9.94;100.00;102020.69;5029539;28;20187;-72
2022/01/01 04:23:38;;;;;;;53.37;24.33;;;;;;;10.13;100.00;102078.50;5028343;28;20564;-72
2022/01/01 04:26:05;;;;;;;54.63;23.80;;;;;;;10.55;100.00;102123.16;5029510;28;20440;-73
2022/01/01 04:28:31;;;;;;;58.37;23.63;;;;;;;10.66;100.00;102167.59;5017906;28;20498;-73
2022/01/01 04:30:56;;;;;;;44.53;21.47;;;;;;;9.43;100.00;101954.78;5028056;28;20530;-73
2022/01/01 04:33:21;;;;;;;43.27;19.90;;;;;;;10.39;100.00;102139.25;5027380;28;20568;-73
2022/01/01 04:35:47;;;;;;;44.33;20.53;;;;;;;10.30;100.00;102084.78;5023149;28;20188;-73
2022/01/01 04:38:32;;;;;;;53.23;21.00;;;;;;;10.03;100.00;102032.25;5029280;28;20276;-72
2022/01/01 04:40:57;;;;;;;61.13;22.70;;;;;;;10.04;100.00;102050.03;5027042;28;20211;-72
2022/01/01 04:43:22;;;;;;;49.83;20.90;;;;;;;9.95;100.00;102021.50;5030190;28;20508;-73
2022/01/01 04:45:48;;;;;;;45.03;20.63;;;;;;;10.65;100.00;102146.31;5027705;28;20241;-72
2022/01/01 04:48:13;;;;;;;46.47;21.63;;;;;;;9.76;100.00;101993.19;5027451;28;20223;-72
2022/01/01 04:50:38;;;;;;;55.33;24.27;;;;;;;10.29;100.00;102074.19;5028634;28;20192;-72
2022/01/01 04:53:04;;;;;;;45.47;21.23;;;;;;;10.46;100.00;102108.06;5027336;28;20188;-72
2022/01/01 04:55:29;;;;;;;47.93;20.83;;;;;;;10.31;100.00;102074.88;5027013;28;20219;-72
2022/01/01 04:57:55;;;;;;;48.57;21.97;;;;;;;9.65;100.00;102009.56;5028478;28;20183;-72
2022/01/01 05:00:20;;;;;;;48.53;21.20;;;;;;;10.50;100.00;102130.03;5025911;28;20764;-72
2022/01/01 05:02:45;;;;;;;50.03;20.97;;;;;;;10.63;100.00;102143.78;5029860;28;20183;-72
2022/01/01 05:05:11;;;;;;;41.70;22.50;;;;;;;9.48;100.00;102006.00;5031594;28;20302;-73
2022/01/01 05:07:36;;;;;;;51.40;22.30;;;;;;;10.32;100.00;102098.81;5026254;28;20188;-72
2022/01/01 05:10:02;;;;;;;42.17;20.80;;;;;;;10.55;100.00;102155.34;5023938;28;20184;-72
2022/01/01 05:12:28;;;;;;;50.80;21.17;;;;;;;9.76;100.00;102060.19;5027909;28;20807;-72
2022/01/01 05:14:53;;;;;;;45.20;20.37;;;;;;;10.45;100.00;102140.44;5025732;28;20564;-73
2022/01/01 05:17:19;;;;;;;51.47;21.97;;;;;;;9.87;100.00;102085.84;5029595;28;20189;-72
2022/01/01 05:19:44;;;;;;;45.30;23.00;;;;;;;9.91;100.00;102079.13;5028575;28;20532;-72
2022/01/01 05:22:10;;;;;;;48.33;24.33;;;;;;;9.74;100.00;102071.03;5024555;28;20183;-72
2022/01/01 05:24:35;;;;;;;54.13;25.87;;;;;;;9.25;100.00;102014.63;5028935;28;20262;-72
2022/01/01 05:27:00;;;;;;;49.63;23.27;;;;;;;9.50;100.00;102054.91;5034887;28;20206;-72
2022/01/01 05:29:26;;;;;;;48.63;23.63;;;;;;;9.31;100.00;102029.22;5029431;28;20200;-72
2022/01/01 05:31:51;;;;;;;54.03;23.30;;;;;;;9.69;100.00;102092.16;5032440;28;20196;-73
2022/01/01 05:34:17;;;;;;;47.83;23.60;;;;;;;9.89;100.00;102118.66;5033259;28;27265;-72
2022/01/01 05:36:42;;;;;;;49.33;24.77;;;;;;;10.19;100.00;102162.81;5034113;28;20304;-72
2022/01/01 05:39:08;;;;;;;49.13;24.63;;;;;;;10.24;100.00;102164.97;5032731;28;20189;-73
2022/01/01 05:41:34;;;;;;;64.30;25.67;;;;;;;10.47;100.00;102184.00;5027551;28;20184;-73
2022/01/01 05:43:59;;;;;;;55.37;25.00;;;;;;;9.82;100.00;102097.03;5029622;28;20971;-72
2022/01/01 05:46:25;;;;;;;54.67;26.20;;;;;;;10.28;100.00;102195.88;5029804;28;21027;-72
2022/01/01 05:48:51;;;;;;;64.27;27.87;;;;;;;9.75;100.00;102104.06;5031831;28;20208;-72
2022/01/01 05:51:16;;;;;;;51.80;27.37;;;;;;;10.28;100.00;102198.56;5030695;28;20508;-71
2022/01/01 05:53:42;;;;;;;65.67;29.60;;;;;;;9.85;100.00;102120.00;5029750;28;20744;-73
2022/01/01 05:56:07;;;;;;;56.03;27.97;;;;;;;10.24;100.00;102189.13;5030128;28;20755;-72
2022/01/01 05:58:32;;;;;;;53.90;26.87;;;;;;;10.37;100.00;102197.56;5029248;28;20188;-73
2022/01/01 06:00:58;;;;;;;56.57;26.67;;;;;;;9.94;100.00;102132.41;5032762;28;20283;-72
2022/01/01 06:03:23;;;;;;;51.37;26.90;;;;;;;10.35;100.00;102184.31;5022390;28;20513;-72
2022/01/01 06:05:51;;;;;;;59.47;29.57;;;;;;;9.88;100.00;102133.91;5027635;28;21050;-73
2022/01/01 06:08:18;;;;;;;56.90;27.97;;;;;;;10.39;100.00;102191.06;5027056;28;20287;-72
2022/01/01 06:10:43;;;;;;;50.33;27.33;;;;;;;9.80;100.00;102066.03;5045886;28;20446;-71
2022/01/01 06:13:09;;;;;;;56.33;27.80;;;;;;;9.57;100.00;102044.38;5029141;28;20435;-72
2022/01/01 06:15:34;;;;;;;52.10;29.20;;;;;;;10.42;100.00;102181.84;5031803;28;20226;-73
2022/01/01 06:18:00;;;;;;;57.73;31.07;;;;;;;10.51;100.00;102167.44;5028896;28;20307;-72
2022/01/01 06:20:25;;;;;;;58.37;30.33;;;;;;;10.54;100.00;102168.94;5027693;28;20199;-72
2022/01/01 06:22:50;;;;;;;46.07;26.43;;;;;;;9.90;100.00;102070.25;5031723;28;20203;-72
2022/01/01 06:25:16;;;;;;;57.90;28.87;;;;;;;9.86;100.00;102084.13;5030113;28;20714;-72
2022/01/01 06:27:42;;;;;;;68.30;31.10;;;;;;;9.70;100.00;102059.00;5028012;28;20184;-72
2022/01/01 06:30:08;;;;;;;62.27;30.87;;;;;;;10.26;100.00;102200.53;5030930;28;20439;-72
2022/01/01 06:32:33;;;;;;;54.50;31.37;;;;;;;9.76;100.00;102086.97;5029971;28;20184;-72
2022/01/01 06:34:59;;;;;;;60.23;31.80;;;;;;;9.67;100.00;102112.91;5030483;28;21213;-73
2022/01/01 06:37:25;;;;;;;51.23;32.10;;;;;;;10.13;100.00;102153.59;5030316;28;20180;-72
2022/01/01 06:39:50;;;;;;;65.83;35.80;;;;;;;9.70;100.00;102093.81;5030577;28;20183;-72
2022/01/01 06:42:16;;;;;;;63.77;34.80;;;;;;;10.46;100.00;102212.69;5029996;28;20797;-72
2022/01/01 06:44:42;;;;;;;61.60;35.90;;;;;;;10.15;100.00;102156.09;5026257;28;20219;-73
2022/01/01 06:47:08;;;;;;;67.63;39.37;;;;;;;10.35;100.00;102199.56;5025001;28;20194;-73
2022/01/01 06:49:34;;;;;;;63.47;38.97;;;;;;;9.04;100.00;102008.88;5028875;28;20466;-72
2022/01/01 06:51:59;;;;;;;68.10;38.80;;;;;;;9.58;100.00;102081.72;5030315;28;20442;-71
2022/01/01 06:54:24;;;;;;;63.57;39.50;;;;;;;9.80;100.00;102125.81;5030503;28;20362;-72
2022/01/01 06:56:50;;;;;;;65.53;37.90;;;;;;;9.08;100.00;102025.44;5029826;28;20199;-72
2022/01/01 06:59:15;;;;;;;70.83;38.23;;;;;;;9.78;100.00;102118.94;5030831;28;20229;-72
2022/01/01 07:01:41;;;;;;;67.07;40.90;;;;;;;9.85;100.00;102106.59;5029854;28;20183;-72
2022/01/01 07:04:06;;;;;;;66.93;39.13;;;;;;;10.17;100.00;102203.19;5030614;28;20715;-72
2022/01/01 07:06:33;;;;;;;70.07;38.50;;;;;;;9.58;100.00;102105.84;5028720;28;20196;-72
2022/01/01 07:08:59;;;;;;;65.10;35.60;;;;;;;8.98;100.00;101998.81;5035345;28;20229;-73
2022/01/01 07:11:24;;;;;;;61.10;35.50;;;;;;;9.36;100.00;102048.31;5030737;28;20442;-73
2022/01/01 07:13:50;;;;;;;60.00;35.20;;;;;;;10.06;100.00;102155.22;5029552;28;20204;-72
2022/01/01 07:16:15;;;;;;;54.37;32.17;;;;;;;9.64;100.00;102074.88;5027533;28;20632;-72
2022/01/01 07:18:40;;;;;;;57.70;32.60;;;;;;;10.18;100.00;102172.72;5031555;28;20703;-72
2022/01/01 07:21:06;;;;;;;55.70;34.50;;;;;;;9.69;100.00;102129.66;5030591;28;20183;-72
2022/01/01 07:23:31;;;;;;;54.93;32.00;;;;;;;9.70;100.00;102123.28;5028195;28;20227;-72
2022/01/01 07:25:57;;;;;;;53.60;29.17;;;;;;;10.04;100.00;102170.66;5030871;28;20554;-72
2022/01/01 07:28:22;;;;;;;54.53;30.37;;;;;;;10.09;100.00;102168.31;5027250;28;20212;-72
2022/01/01 07:30:47;;;;;;;48.70;28.67;;;;;;;9.68;100.00;102103.84;5030413;28;20183;-73
2022/01/01 07:33:14;;;;;;;48.67;28.30;;;;;;;10.25;100.00;102221.16;5029286;28;20179;-73
2022/01/01 07:35:40;;;;;;;58.43;28.03;;;;;;;9.68;100.00;102149.41;5030675;28;20619;-73
2022/01/01 07:38:06;;;;;;;44.00;26.10;;;;;;;9.54;100.00;102100.94;5023608;28;20437;-73
2022/01/01 07:40:34;;;;;;;43.67;25.03;;;;;;;10.21;100.00;102227.81;5029717;28;20442;-73
2022/01/01 07:43:12;;;;;;;43.57;25.97;;;;;;;10.10;100.00;102196.81;5029603;28;20468;-73
2022/01/01 07:45:38;;;;;;;46.43;25.60;;;;;;;10.00;100.00;102185.38;5029292;28;20457;-73
2022/01/01 07:48:05;;;;;;;51.17;25.87;;;;;;;9.59;100.00;102136.13;5029944;28;20573;-73
2022/01/01 07:50:31;;;;;;;49.30;27.90;;;;;;;10.06;100.00;102206.16;5009266;28;20438;-72
2022/01/01 07:52:56;;;;;;;50.80;29.60;;;;;;;9.95;100.00;102210.00;5020544;28;20457;-72
2022/01/01 07:55:22;;;;;;;45.77;27.70;;;;;;;8.96;100.00;102046.28;5021053;28;20211;-72
2022/01/01 07:57:47;;;;;;;48.23;27.40;;;;;;;9.85;100.00;102216.47;5031233;28;20672;-72
2022/01/01 08:00:13;;;;;;;52.60;28.00;;;;;;;9.48;100.00;102115.81;5029434;28;20231;-72
2022/01/01 08:02:43;;;;;;;42.27;24.10;;;;;;;10.22;100.00;102215.28;5025184;28;20216;-72
2022/01/01 08:05:10;;;;;;;47.23;23.83;;;;;;;9.85;100.00;102177.09;5026974;28;24607;-72
2022/01/01 08:07:35;;;;;;;45.47;24.57;;;;;;;9.77;100.00;102163.66;5028188;28;20476;-72
2022/01/01 08:10:01;;;;;;;47.83;24.53;;;;;;;9.65;100.00;102144.34;5020689;28;20503;-73
2022/01/01 08:12:26;;;;;;;43.40;23.53;;;;;;;9.21;100.00;102066.00;5019077;28;20540;-73
2022/01/01 08:14:56;;;;;;;51.87;25.00;;;;;;;9.71;100.00;102158.94;5025715;28;20273;-74
2022/01/01 08:17:23;;;;;;;46.00;23.70;;;;;;;10.06;100.00;102216.03;5020066;28;20191;-75
2022/01/01 08:19:49;;;;;;;53.60;24.80;;;;;;;9.45;100.00;102119.66;5027596;28;20434;-73
2022/01/01 08:22:15;;;;;;;48.40;25.37;;;;;;;10.05;100.00;102223.25;5023801;28;20445;-73
2022/01/01 08:24:41;;;;;;;51.60;24.10;;;;;;;8.20;100.00;101961.34;5028751;28;20482;-74
2022/01/01 08:27:06;;;;;;;61.83;25.87;;;;;;;9.39;100.00;102130.19;5025426;28;20180;-73
2022/01/01 08:29:32;;;;;;;53.63;25.50;;;;;;;9.62;100.00;102166.13;5021783;28;20212;-73
2022/01/01 08:31:57;;;;;;;48.40;25.20;;;;;;;10.12;100.00;102212.72;5028819;28;20569;-73
2022/01/01 08:34:23;;;;;;;55.37;26.10;;;;;;;10.06;100.00;102229.44;5031359;28;20989;-74
2022/01/01 08:36:49;;;;;;;45.50;23.60;;;;;;;9.73;100.00;102181.06;5026953;28;20176;-74
2022/01/01 08:39:15;;;;;;;43.23;23.00;;;;;;;9.80;100.00;102198.19;5026038;28;21175;-74
2022/01/01 08:41:40;;;;;;;59.00;25.77;;;;;;;10.11;100.00;102230.66;5018368;28;23757;-73
2022/01/01 08:44:06;;;;;;;52.20;23.60;;;;;;;10.12;100.00;102232.31;5028627;28;20472;-74
2022/01/01 08:46:31;;;;;;;44.00;22.03;;;;;;;9.98;100.00;102192.75;5026122;28;20189;-74
2022/01/01 08:48:57;;;;;;;53.13;22.77;;;;;;;9.72;100.00;102148.09;5022759;28;20250;-74
2022/01/01 08:51:22;;;;;;;32.07;20.03;;;;;;;9.85;100.00;102171.75;5023474;28;20186;-74
2022/01/01 08:53:49;;;;;;;46.40;21.33;;;;;;;9.64;100.00;102134.66;5029259;28;20200;-74
2022/01/01 08:56:14;;;;;;;43.07;20.80;;;;;;;10.33;100.00;102244.53;5029645;28;20649;-73
2022/01/01 08:58:41;;;;;;;50.03;22.30;;;;;;;10.30;100.00;102247.50;5028983;28;20814;-74
2022/01/01 09:01:07;;;;;;;44.57;22.40;;;;;;;10.36;100.00;102249.56;5028083;28;20700;-74
2022/01/01 09:03:37;;;;;;;48.53;23.50;;;;;;;10.18;100.00;102245.09;5031606;28;20445;-75
2022/01/01 09:06:04;;;;;;;44.80;22.43;;;;;;;10.29;100.00;102253.88;5027371;28;20436;-74
2022/01/01 09:08:34;;;;;;;44.10;21.77;;;;;;;9.68;100.00;102153.91;5027121;28;20465;-74
2022/01/01 09:11:00;;;;;;;49.83;22.90;;;;;;;10.21;100.00;102246.59;5021010;28;20446;-74
2022/01/01 09:13:25;;;;;;;44.33;22.53;;;;;;;10.15;100.00;102248.09;5024615;28;20457;-74
2022/01/01 09:15:52;;;;;;;48.03;24.27;;;;;;;9.97;100.00;102215.16;5023697;28;20196;-74
2022/01/01 09:18:17;;;;;;;43.60;21.97;;;;;;;9.61;100.00;102134.97;5031079;28;20272;-74
2022/01/01 09:20:42;;;;;;;57.10;25.57;;;;;;;10.06;100.00;102208.84;5030966;28;20438;-77
2022/01/01 09:23:08;;;;;;;43.20;23.47;;;;;;;9.40;100.00;102103.25;5028905;28;20211;-76
2022/01/01 09:25:33;;;;;;;43.90;23.33;;;;;;;8.74;100.00;102002.19;5027849;28;20212;-77
2022/01/01 09:27:59;;;;;;;59.10;22.77;;;;;;;9.83;100.00;102195.16;5028746;28;20207;-76
2022/01/01 09:30:24;;;;;;;48.87;25.70;;;;;;;10.09;100.00;102208.50;5030759;28;20192;-77
2022/01/01 09:32:50;;;;;;;47.70;25.30;;;;;;;9.56;100.00;102125.75;5024404;28;20719;-77
2022/01/01 09:35:17;;;;;;;63.53;25.47;;;;;;;9.72;100.00;102145.41;5028786;28;20244;-76
2022/01/01 09:37:42;;;;;;;55.90;27.03;;;;;;;10.30;100.00;102243.00;5028749;28;21111;-76
2022/01/01 09:40:08;;;;;;;58.53;27.37;;;;;;;9.81;100.00;102154.31;5025715;28;20442;-77
2022/01/01 09:42:34;;;;;;;59.60;25.00;;;;;;;10.06;100.00;102191.91;5029748;28;20665;-76
2022/01/01 09:45:04;;;;;;;47.87;24.50;;;;;;;10.37;100.00;102246.69;5032020;28;20519;-76
2022/01/01 09:47:30;;;;;;;44.40;25.13;;;;;;;9.26;100.00;102043.09;5028193;28;20244;-75
2022/01/01 09:49:55;;;;;;;46.00;24.50;;;;;;;9.95;100.00;102167.09;5026084;28;20474;-75
2022/01/01 09:52:21;;;;;;;47.23;27.33;;;;;;;9.00;100.00;102013.69;5039956;28;21005;-77
2022/01/01 09:54:46;;;;;;;47.53;24.93;;;;;;;10.44;100.00;102236.13;5031009;28;20207;-76
2022/01/01 09:57:12;;;;;;;45.10;25.03;;;;;;;9.86;100.00;102127.84;5028744;28;20517;-77
2022/01/01 09:59:38;;;;;;;49.93;25.57;;;;;;;9.96;100.00;102141.13;5026986;28;20623;-77
2022/01/01 10:02:04;;;;;;;59.93;27.50;;;;;;;10.52;100.00;102249.56;5029393;28;20566;-78
2022/01/01 10:04:51;;;;;;;52.33;25.80;;;;;;;10.48;100.00;102213.38;5035560;28;20459;-76
2022/01/01 10:07:18;;;;;;;47.77;25.30;;;;;;;10.40;100.00;102173.94;5025832;28;20203;-76
2022/01/01 10:09:43;;;;;;;44.93;24.33;;;;;;;10.45;100.00;102178.00;5013640;28;20478;-78
2022/01/01 10:12:14;;;;;;;47.37;26.30;;;;;;;10.02;100.00;102113.69;5028609;28;20451;-82
2022/01/01 10:14:40;;;;;;;49.77;26.00;;;;;;;10.70;100.00;102224.47;5025305;28;20296;-82
2022/01/01 10:17:21;;;;;;;48.77;25.70;;;;;;;10.30;100.00;102146.44;5032282;28;20438;-79
2022/01/01 10:19:50;;;;;;;46.17;24.63;;;;;;;9.39;100.00;102020.38;5025012;28;20477;-75
2022/01/01 10:22:20;;;;;;;50.20;25.23;;;;;;;10.75;100.00;102216.75;5032965;28;20450;-74
2022/01/01 10:27:43;;;;;;;53.63;27.10;;;;;;;10.49;100.00;102168.59;5030336;28;20434;-78
2022/01/01 10:30:36;;;;;;;57.43;28.40;;;;;;;10.76;100.00;102202.31;5020944;28;20460;-74
2022/01/01 10:33:20;;;;;;;45.77;27.67;;;;;;;10.64;100.00;102172.28;5045112;28;20529;-76
2022/01/01 10:35:47;;;;;;;55.33;28.13;;;;;;;10.69;100.00;102183.38;5015984;28;21019;-74
2022/01/01 10:38:20;;;;;;;57.40;28.90;;;;;;;10.29;100.00;102101.84;5030274;28;20531;-74
2022/01/01 10:40:46;;;;;;;50.13;28.50;;;;;;;10.69;100.00;102161.06;5029138;28;20438;-75
2022/01/01 10:43:15;;;;;;;49.80;30.20;;;;;;;10.83;100.00;102187.25;5026344;28;21051;-74
2022/01/01 10:45:45;;;;;;;47.93;28.03;;;;;;;10.89;100.00;102175.84;5025221;28;20465;-74
2022/01/01 10:50:47;;;;;;;44.53;28.87;;;;;;;10.67;100.00;102145.13;5024490;28;20430;-73
2022/01/01 10:53:15;;;;;;;56.00;32.57;;;;;;;10.92;100.00;102174.66;5028702;28;20461;-74
2022/01/01 10:55:46;;;;;;;49.03;29.83;;;;;;;10.94;100.00;102176.16;5026048;28;20463;-77
2022/01/01 10:58:27;;;;;;;48.40;29.00;;;;;;;10.78;100.00;102149.31;5008631;28;20450;-76
2022/01/01 11:01:00;;;;;;;52.10;27.97;;;;;;;10.88;100.00;102166.13;5012554;28;22591;-76
2022/01/01 11:03:27;;;;;;;56.63;29.87;;;;;;;10.30;100.00;102051.72;5021729;28;20469;-75
2022/01/01 11:06:04;;;;;;;49.93;27.30;;;;;;;10.71;100.00;102108.91;5028915;28;20446;-75
2022/01/01 11:08:30;;;;;;;53.27;30.40;;;;;;;10.91;100.00;102140.78;5027039;28;20973;-76